Time;durP1;ratioP1;P1;durP2;ratioP2;P2;SDS_P1;SDS_P2;PMS_P1;PMS_P2;Temp;Humidity;BMP_temperature;BMP_pressure;BME280_temperature;BME280_humidity;BME280_pressure;Samples;Min_cycle;Max_cycle;Signal;HPM_P1;HPM_P2
2023/07/08 00:00:50;;;;;;;8.63;5.22;;;17.50;99.90;;;;;;4995721;28;20113;-91
2023/07/08 00:03:16;;;;;;;5.53;5.00;;;17.60;99.90;;;;;;4990346;28;20121;-91
2023/07/08 00:05:41;;;;;;;6.68;5.15;;;17.50;99.90;;;;;;4977556;28;20121;-91
2023/07/08 00:08:15;;;;;;;5.88;5.07;;;17.50;99.90;;;;;;4996452;28;20069;-90
2023/07/08 00:10:40;;;;;;;6.95;5.32;;;17.50;99.90;;;;;;4970423;28;20034;-90
2023/07/08 00:13:08;;;;;;;7.78;4.80;;;17.40;99.90;;;;;;4984252;28;20030;-90
2023/07/08 00:15:34;;;;;;;8.48;5.60;;;17.40;99.90;;;;;;4972147;28;20508;-91
2023/07/08 00:18:00;;;;;;;5.40;4.88;;;17.30;99.90;;;;;;4979385;28;20622;-90
2023/07/08 00:20:37;;;;;;;5.72;4.65;;;17.30;99.90;;;;;;4996417;28;20057;-90
2023/07/08 00:23:03;;;;;;;8.43;5.43;;;17.20;99.90;;;;;;4979460;28;20034;-90
2023/07/08 00:25:29;;;;;;;8.32;5.03;;;17.20;99.90;;;;;;5011388;23;20419;-80
2023/07/08 00:27:55;;;;;;;5.63;5.13;;;17.20;99.90;;;;;;4993848;28;20038;-81
2023/07/08 00:30:26;;;;;;;8.02;5.68;;;17.10;99.90;;;;;;4999158;28;20064;-81
2023/07/08 00:32:59;;;;;;;5.50;5.00;;;17.10;99.90;;;;;;5002829;28;20042;-81
2023/07/08 00:35:35;;;;;;;5.88;4.93;;;17.00;99.90;;;;;;4986221;28;20125;-81
2023/07/08 00:38:15;;;;;;;7.63;5.68;;;17.00;99.90;;;;;;4985800;28;20040;-80
2023/07/08 00:40:57;;;;;;;7.97;5.93;;;16.90;99.90;;;;;;4998144;28;20512;-80
2023/07/08 00:43:48;;;;;;;5.38;4.85;;;16.90;99.90;;;;;;4997560;28;20041;-81
2023/07/08 00:46:29;;;;;;;9.35;5.47;;;16.90;99.90;;;;;;4995738;28;20095;-81
2023/07/08 00:49:08;;;;;;;7.63;5.28;;;16.90;99.90;;;;;;4997198;28;20116;-80
2023/07/08 00:51:39;;;;;;;6.78;5.07;;;16.80;99.90;;;;;;4984851;28;20097;-80
2023/07/08 00:54:14;;;;;;;5.45;4.95;;;16.80;99.90;;;;;;5001299;28;20065;-81
2023/07/08 00:56:46;;;;;;;7.63;6.05;;;16.80;99.90;;;;;;5000366;28;20066;-81
2023/07/08 00:59:27;;;;;;;6.63;5.65;;;16.80;99.90;;;;;;4994442;28;20104;-81
2023/07/08 01:01:55;;;;;;;6.63;5.57;;;16.80;99.90;;;;;;5000655;28;20049;-81
2023/07/08 01:04:42;;;;;;;6.38;5.63;;;16.80;99.90;;;;;;5002204;28;20041;-80
2023/07/08 01:07:09;;;;;;;7.60;6.00;;;16.70;99.90;;;;;;5005112;28;20503;-80
2023/07/08 01:09:42;;;;;;;6.35;5.50;;;16.70;99.90;;;;;;5000301;28;20034;-81
2023/07/08 01:12:12;;;;;;;6.53;5.43;;;16.70;99.90;;;;;;5000745;28;20065;-80
2023/07/08 01:14:42;;;;;;;8.52;5.57;;;16.70;99.90;;;;;;4997825;28;20440;-89
2023/07/08 01:17:13;;;;;;;6.97;5.40;;;16.70;99.90;;;;;;4996521;28;20104;-88
2023/07/08 01:19:40;;;;;;;7.45;6.22;;;16.70;99.90;;;;;;4979907;28;20038;-89
2023/07/08 01:22:07;;;;;;;6.93;6.22;;;16.60;99.90;;;;;;4980765;28;20033;-87
2023/07/08 01:24:42;;;;;;;6.82;6.00;;;16.60;99.90;;;;;;5003258;28;20096;-88
2023/07/08 01:27:12;;;;;;;6.03;5.38;;;16.60;99.90;;;;;;4996201;28;20388;-88
2023/07/08 01:29:38;;;;;;;7.38;5.80;;;16.60;99.90;;;;;;5012643;28;20049;-88
2023/07/08 01:32:05;;;;;;;6.80;5.82;;;16.50;99.90;;;;;;5010210;28;20115;-88
2023/07/08 01:34:32;;;;;;;7.90;5.70;;;16.50;99.90;;;;;;4996356;28;20081;-87
2023/07/08 01:37:00;;;;;;;7.82;6.85;;;16.60;99.90;;;;;;4981908;28;20439;-88
2023/07/08 01:39:28;;;;;;;7.32;5.75;;;16.50;99.90;;;;;;4990240;28;20401;-86
2023/07/08 01:41:56;;;;;;;7.50;6.57;;;16.50;99.90;;;;;;4988130;28;20038;-87
2023/07/08 01:44:34;;;;;;;7.28;6.32;;;16.50;99.90;;;;;;4995851;28;20049;-86
2023/07/08 01:47:22;;;;;;;7.15;5.90;;;16.40;99.90;;;;;;4977385;28;20156;-88
2023/07/08 01:49:48;;;;;;;9.88;7.20;;;16.40;99.90;;;;;;4995664;28;20393;-88
2023/07/08 01:52:17;;;;;;;7.93;6.00;;;16.40;99.90;;;;;;4979527;28;20403;-87
2023/07/08 01:54:43;;;;;;;6.85;6.25;;;16.30;99.90;;;;;;4978518;28;20038;-87
2023/07/08 01:57:08;;;;;;;8.02;6.38;;;16.30;99.90;;;;;;4996197;28;20030;-87
2023/07/08 01:59:34;;;;;;;7.68;6.40;;;16.30;99.90;;;;;;4989331;28;20044;-87
2023/07/08 02:02:00;;;;;;;8.52;6.78;;;16.30;99.90;;;;;;4995099;28;20044;-87
2023/07/08 02:04:26;;;;;;;8.45;6.30;;;16.20;99.90;;;;;;4979536;28;20281;-88
2023/07/08 02:06:54;;;;;;;8.27;6.13;;;16.20;99.90;;;;;;4994737;28;20099;-88
2023/07/08 02:09:20;;;;;;;9.38;5.88;;;16.20;99.90;;;;;;4990968;28;20042;-86
2023/07/08 02:11:46;;;;;;;8.48;6.47;;;16.20;99.90;;;;;;4978531;28;20037;-87
2023/07/08 02:14:12;;;;;;;9.10;6.05;;;16.20;99.90;;;;;;4979260;28;20476;-87
2023/07/08 02:16:37;;;;;;;7.50;6.18;;;16.10;99.90;;;;;;4994239;28;20042;-87
2023/07/08 02:19:03;;;;;;;10.15;6.30;;;16.20;99.90;;;;;;4977086;28;20504;-87
2023/07/08 02:21:30;;;;;;;8.57;7.68;;;16.10;99.90;;;;;;4993591;28;20042;-88
2023/07/08 02:23:57;;;;;;;9.98;7.97;;;16.10;99.90;;;;;;4993219;28;20119;-88
2023/07/08 02:26:24;;;;;;;11.13;8.98;;;16.10;99.90;;;;;;4995639;28;20393;-88
2023/07/08 02:28:49;;;;;;;12.55;10.07;;;16.10;99.90;;;;;;4993971;28;20033;-87
2023/07/08 02:31:15;;;;;;;11.63;10.52;;;16.10;99.90;;;;;;4991261;28;20088;-86
2023/07/08 02:33:41;;;;;;;11.35;10.25;;;16.10;99.90;;;;;;4988153;28;20038;-88
2023/07/08 02:36:06;;;;;;;11.85;10.65;;;16.20;99.90;;;;;;4979273;28;20520;-87
2023/07/08 02:38:32;;;;;;;11.57;10.38;;;16.20;99.90;;;;;;4992195;28;20041;-88
2023/07/08 02:40:59;;;;;;;11.32;10.32;;;16.10;99.90;;;;;;4978495;28;20492;-87
2023/07/08 02:43:24;;;;;;;12.25;11.15;;;16.10;99.90;;;;;;4994631;28;20397;-88
2023/07/08 02:45:50;;;;;;;12.60;11.40;;;16.10;99.90;;;;;;4990765;28;20038;-87
2023/07/08 02:48:18;;;;;;;12.50;11.40;;;16.00;99.90;;;;;;4995027;28;20046;-88
2023/07/08 02:50:43;;;;;;;12.23;10.93;;;16.00;99.90;;;;;;4994813;28;20068;-87
2023/07/08 02:53:09;;;;;;;12.77;11.65;;;16.10;99.90;;;;;;4994583;28;20042;-86
2023/07/08 02:55:34;;;;;;;13.00;11.88;;;16.00;99.90;;;;;;4974704;28;20500;-88
2023/07/08 02:58:00;;;;;;;12.77;11.52;;;16.00;99.90;;;;;;4976682;28;20041;-87
2023/07/08 03:00:27;;;;;;;13.50;12.40;;;16.00;99.90;;;;;;4994513;28;20588;-87
2023/07/08 03:02:52;;;;;;;13.07;11.88;;;16.00;99.90;;;;;;4994674;28;20069;-88
2023/07/08 03:05:18;;;;;;;15.38;13.80;;;16.00;99.90;;;;;;4977508;28;20060;-87
2023/07/08 03:07:46;;;;;;;14.52;12.93;;;16.00;99.90;;;;;;4997284;28;20042;-86
2023/07/08 03:10:12;;;;;;;12.50;11.50;;;16.00;99.90;;;;;;4998640;28;20035;-88
2023/07/08 03:12:37;;;;;;;13.05;11.75;;;15.90;99.90;;;;;;5002196;28;20125;-86
2023/07/08 03:15:04;;;;;;;13.13;11.93;;;16.00;99.90;;;;;;4995815;28;20054;-85
2023/07/08 03:17:30;;;;;;;14.18;12.88;;;15.90;99.90;;;;;;4992560;28;20604;-87
2023/07/08 03:19:55;;;;;;;14.23;12.93;;;15.90;99.90;;;;;;4978749;28;20034;-87
2023/07/08 03:22:21;;;;;;;13.68;12.30;;;15.90;99.90;;;;;;4977710;28;20037;-87
2023/07/08 03:24:46;;;;;;;13.02;11.50;;;15.80;99.90;;;;;;4970504;28;20033;-87
2023/07/08 03:27:16;;;;;;;12.65;11.55;;;15.80;99.90;;;;;;5002505;28;20485;-86
2023/07/08 03:29:42;;;;;;;14.75;13.20;;;15.80;99.90;;;;;;5009355;28;20132;-87
2023/07/08 03:32:11;;;;;;;13.82;12.45;;;15.80;99.90;;;;;;4987880;28;20042;-87
2023/07/08 03:34:36;;;;;;;13.93;12.27;;;15.80;99.90;;;;;;4993890;28;20062;-87
2023/07/08 03:37:02;;;;;;;12.98;11.68;;;15.80;99.90;;;;;;4978856;28;20061;-87
2023/07/08 03:39:28;;;;;;;14.13;12.27;;;15.80;99.90;;;;;;4978388;28;20049;-87
2023/07/08 03:41:54;;;;;;;13.65;12.30;;;15.80;99.90;;;;;;4993422;28;20034;-87
2023/07/08 03:44:20;;;;;;;13.63;12.25;;;15.80;99.90;;;;;;4987113;28;20030;-86
2023/07/08 03:46:51;;;;;;;13.23;12.00;;;15.80;99.90;;;;;;4977789;28;20037;-87
2023/07/08 03:49:23;;;;;;;13.55;12.27;;;15.80;99.90;;;;;;4978290;28;20249;-88
2023/07/08 03:51:50;;;;;;;14.05;12.75;;;15.80;99.90;;;;;;4977374;28;20124;-88
2023/07/08 03:54:18;;;;;;;13.77;12.38;;;15.70;99.90;;;;;;4990845;28;20042;-88
2023/07/08 03:56:44;;;;;;;14.60;12.88;;;15.70;99.90;;;;;;4992466;28;20041;-88
2023/07/08 03:59:10;;;;;;;14.23;12.70;;;15.70;99.90;;;;;;4978652;28;20117;-87
2023/07/08 04:01:37;;;;;;;14.90;13.23;;;15.80;99.90;;;;;;4987503;28;20038;-86
2023/07/08 04:04:03;;;;;;;13.48;12.18;;;15.80;99.90;;;;;;4977985;28;20029;-87
2023/07/08 04:06:28;;;;;;;13.77;12.38;;;15.80;99.90;;;;;;4972555;28;20034;-85
2023/07/08 04:08:54;;;;;;;13.07;10.57;;;15.80;99.90;;;;;;4984511;28;20041;-87
2023/07/08 04:11:22;;;;;;;12.65;11.23;;;15.80;99.90;;;;;;4993754;28;20034;-87
2023/07/08 04:13:48;;;;;;;12.15;10.95;;;15.80;99.90;;;;;;5009129;28;20405;-88
2023/07/08 04:16:20;;;;;;;14.20;10.38;;;15.80;99.90;;;;;;4993970;28;20060;-87
2023/07/08 04:18:45;;;;;;;10.95;9.52;;;15.80;99.90;;;;;;4996937;28;20046;-91
2023/07/08 04:21:11;;;;;;;12.25;9.75;;;15.90;99.90;;;;;;4994397;28;20335;-92
2023/07/08 04:23:37;;;;;;;12.20;9.23;;;15.90;99.90;;;;;;4977971;28;20078;-88
2023/07/08 04:26:02;;;;;;;10.52;9.43;;;15.80;99.90;;;;;;4994008;28;20069;-91
2023/07/08 04:28:28;;;;;;;10.35;8.60;;;15.90;99.90;;;;;;4993820;28;20073;-92
2023/07/08 04:30:54;;;;;;;9.88;8.85;;;15.90;99.90;;;;;;4979323;28;20038;-88
2023/07/08 04:33:20;;;;;;;10.18;8.30;;;15.90;99.90;;;;;;4981004;28;20045;-82
2023/07/08 04:35:46;;;;;;;9.25;8.35;;;15.90;99.90;;;;;;5001465;28;20449;-81
2023/07/08 04:38:21;;;;;;;10.57;8.23;;;16.00;99.90;;;;;;5002270;28;20045;-82
2023/07/08 04:40:47;;;;;;;9.05;7.88;;;16.00;99.90;;;;;;5001209;28;20095;-81
2023/07/08 04:43:14;;;;;;;9.68;7.78;;;16.00;99.90;;;;;;4997264;28;20045;-82
2023/07/08 04:45:42;;;;;;;9.57;8.57;;;16.10;99.90;;;;;;4983397;28;20037;-82
2023/07/08 04:48:13;;;;;;;9.02;8.10;;;16.10;99.90;;;;;;4983870;28;20089;-82
2023/07/08 04:50:44;;;;;;;9.18;8.32;;;16.10;99.90;;;;;;4998807;28;20041;-84
2023/07/08 04:53:10;;;;;;;9.27;8.02;;;16.20;99.90;;;;;;4997959;28;20046;-82
2023/07/08 04:55:39;;;;;;;8.50;7.65;;;16.20;99.90;;;;;;4980333;28;20358;-82
2023/07/08 04:58:04;;;;;;;9.00;7.85;;;16.30;99.90;;;;;;4996948;28;20116;-82
2023/07/08 05:00:30;;;;;;;8.30;7.47;;;16.30;99.90;;;;;;4997009;28;20066;-81
2023/07/08 05:02:55;;;;;;;9.13;7.90;;;16.30;99.90;;;;;;4983356;28;20081;-81
2023/07/08 05:05:21;;;;;;;8.07;7.28;;;16.40;99.90;;;;;;4998212;28;20046;-82
2023/07/08 05:07:49;;;;;;;7.45;6.85;;;16.40;99.90;;;;;;4993104;28;20042;-81
2023/07/08 05:10:15;;;;;;;9.43;7.82;;;16.40;99.90;;;;;;4998878;28;20038;-82
2023/07/08 05:12:42;;;;;;;8.95;8.13;;;16.50;99.90;;;;;;4997413;28;20548;-81
2023/07/08 05:15:08;;;;;;;8.05;7.20;;;16.60;99.90;;;;;;4997444;28;20481;-82
2023/07/08 05:17:34;;;;;;;8.52;7.57;;;16.60;99.90;;;;;;4992789;28;20077;-82
2023/07/08 05:20:00;;;;;;;9.07;7.00;;;16.70;99.90;;;;;;4999433;28;20600;-82
2023/07/08 05:22:27;;;;;;;9.27;7.15;;;16.70;99.90;;;;;;4997940;28;20408;-82
2023/07/08 05:24:55;;;;;;;9.02;7.05;;;16.80;99.90;;;;;;4996293;28;20053;-82
2023/07/08 05:27:22;;;;;;;8.05;7.03;;;17.00;99.90;;;;;;4996846;28;20076;-82
2023/07/08 05:29:48;;;;;;;7.57;6.22;;;17.00;99.90;;;;;;5006329;28;20485;-82
2023/07/08 05:32:13;;;;;;;6.63;5.95;;;17.10;99.90;;;;;;4987427;28;20050;-81
2023/07/08 05:34:39;;;;;;;7.00;6.30;;;17.10;99.90;;;;;;4986607;28;20042;-83
2023/07/08 05:37:04;;;;;;;6.85;6.20;;;17.30;99.90;;;;;;5008729;28;20034;-82
2023/07/08 05:39:31;;;;;;;7.15;5.95;;;17.40;99.90;;;;;;4984572;28;20126;-82
2023/07/08 05:41:56;;;;;;;6.68;5.95;;;17.40;99.90;;;;;;4989904;28;20113;-81
2023/07/08 05:44:22;;;;;;;7.47;5.85;;;17.60;99.90;;;;;;5008226;28;20065;-81
2023/07/08 05:46:49;;;;;;;6.57;5.95;;;17.70;99.90;;;;;;4975863;28;20049;-82
2023/07/08 05:49:15;;;;;;;6.30;5.70;;;17.90;99.90;;;;;;4979001;28;20117;-82
2023/07/08 05:51:43;;;;;;;6.57;5.88;;;18.00;99.90;;;;;;4993763;28;20076;-82
2023/07/08 05:54:08;;;;;;;7.68;5.35;;;18.10;99.90;;;;;;4986460;28;20039;-82
2023/07/08 05:56:34;;;;;;;7.65;6.13;;;18.20;99.90;;;;;;4974008;28;20552;-82
2023/07/08 05:59:00;;;;;;;7.53;5.38;;;18.30;99.90;;;;;;4988333;28;20109;-82
2023/07/08 06:01:25;;;;;;;5.90;5.22;;;18.40;99.90;;;;;;4991427;28;20076;-82
2023/07/08 06:03:52;;;;;;;7.43;6.00;;;18.60;99.90;;;;;;4993009;28;20046;-83
2023/07/08 06:06:18;;;;;;;6.00;5.40;;;18.60;99.90;;;;;;4979775;28;20038;-81
2023/07/08 06:08:44;;;;;;;8.88;5.57;;;18.70;99.90;;;;;;4987903;28;20042;-81
2023/07/08 06:11:09;;;;;;;8.07;5.78;;;18.90;99.90;;;;;;4988709;28;20038;-81
2023/07/08 06:13:35;;;;;;;5.72;5.10;;;18.90;99.90;;;;;;4979957;28;20089;-80
2023/07/08 06:16:01;;;;;;;6.97;5.30;;;19.10;99.90;;;;;;4984370;28;20126;-81
2023/07/08 06:18:39;;;;;;;5.53;4.95;;;19.20;99.90;;;;;;4976369;28;20041;-84
2023/07/08 06:21:08;;;;;;;7.25;5.88;;;19.40;99.90;;;;;;4981015;28;20401;-81
2023/07/08 06:23:34;;;;;;;5.85;5.28;;;19.40;99.90;;;;;;4992567;28;20788;-81
2023/07/08 06:26:00;;;;;;;6.85;5.05;;;19.50;99.90;;;;;;5007502;28;20045;-81
2023/07/08 06:28:30;;;;;;;7.55;5.18;;;19.70;99.90;;;;;;4990652;28;20044;-81
2023/07/08 06:31:02;;;;;;;6.25;4.95;;;19.80;99.90;;;;;;4978674;28;20616;-82
2023/07/08 06:33:28;;;;;;;7.72;4.95;;;19.90;99.90;;;;;;4972772;28;20049;-82
2023/07/08 06:35:54;;;;;;;5.30;4.80;;;20.00;99.90;;;;;;4995282;28;20050;-81
2023/07/08 06:38:22;;;;;;;5.97;5.30;;;20.10;99.90;;;;;;4998724;28;20041;-84
2023/07/08 06:40:48;;;;;;;4.95;4.35;;;20.20;99.90;;;;;;4979530;28;20049;-81
2023/07/08 06:43:16;;;;;;;8.05;4.85;;;20.30;99.90;;;;;;4987850;28;20117;-82
2023/07/08 06:45:45;;;;;;;7.07;4.90;;;20.40;99.90;;;;;;4990829;28;20416;-82
2023/07/08 06:48:11;;;;;;;9.60;4.72;;;20.50;99.90;;;;;;4977221;28;20106;-82
2023/07/08 06:50:47;;;;;;;5.60;5.10;;;20.60;99.90;;;;;;5003162;28;20037;-89
2023/07/08 06:55:46;;;;;;;5.25;4.50;;;20.90;99.90;;;;;;5004575;23;20120;-33
2023/07/08 06:58:12;;;;;;;5.00;4.47;;;21.00;99.90;;;;;;5001348;28;20092;-33
2023/07/08 07:00:42;;;;;;;7.15;4.50;;;21.10;99.90;;;;;;5004573;28;20044;-33
2023/07/08 07:03:08;;;;;;;5.32;4.82;;;21.30;99.90;;;;;;4992486;28;20121;-33
2023/07/08 07:05:34;;;;;;;6.07;4.70;;;21.40;99.90;;;;;;5003844;28;20121;-33
2023/07/08 07:07:59;;;;;;;5.07;4.15;;;21.50;99.90;;;;;;4997512;28;20037;-33
2023/07/08 07:10:25;;;;;;;5.78;4.53;;;21.60;99.90;;;;;;5003515;28;20517;-32
2023/07/08 07:12:51;;;;;;;5.00;3.92;;;21.70;99.90;;;;;;5005301;28;20069;-33
2023/07/08 07:15:16;;;;;;;6.57;4.68;;;21.80;99.90;;;;;;4999837;28;20033;-33
2023/07/08 07:17:42;;;;;;;6.32;4.47;;;21.90;99.90;;;;;;4967442;28;20495;-35
2023/07/08 07:20:08;;;;;;;5.18;4.55;;;22.10;99.90;;;;;;4990854;28;20042;-34
2023/07/08 07:22:34;;;;;;;8.40;4.57;;;22.20;99.90;;;;;;5008290;28;20041;-34
2023/07/08 07:25:01;;;;;;;6.45;4.30;;;22.30;99.90;;;;;;5007931;28;20034;-35
2023/07/08 07:27:26;;;;;;;5.10;4.38;;;22.40;99.90;;;;;;5006954;28;20045;-35
2023/07/08 07:29:52;;;;;;;4.60;4.20;;;22.50;99.90;;;;;;4988874;28;20490;-34
2023/07/08 07:32:21;;;;;;;4.80;4.40;;;22.50;99.90;;;;;;5004929;28;20625;-37
2023/07/08 07:34:48;;;;;;;4.97;3.95;;;22.70;99.90;;;;;;5003026;28;20661;-41
2023/07/08 07:37:16;;;;;;;4.68;4.28;;;22.90;99.90;;;;;;4994415;28;20338;-44
2023/07/08 07:39:42;;;;;;;6.55;4.22;;;23.00;99.90;;;;;;4996607;28;20101;-43
2023/07/08 07:42:09;;;;;;;4.43;3.60;;;23.20;99.90;;;;;;5006231;28;20120;-42
2023/07/08 07:44:35;;;;;;;4.47;4.07;;;23.40;99.90;;;;;;5002356;28;20041;-34
2023/07/08 07:47:02;;;;;;;4.72;4.28;;;23.50;99.90;;;;;;5005312;28;20415;-38
2023/07/08 07:49:28;;;;;;;5.90;4.50;;;23.60;99.90;;;;;;5006346;28;20052;-36
2023/07/08 07:51:54;;;;;;;5.32;4.07;;;23.70;99.90;;;;;;5009236;28;20491;-37
2023/07/08 07:54:20;;;;;;;5.40;4.28;;;23.90;99.90;;;;;;5008730;28;20042;-38
2023/07/08 07:56:46;;;;;;;4.88;4.18;;;24.00;99.90;;;;;;5009108;28;20545;-33
2023/07/08 07:59:11;;;;;;;5.57;4.70;;;24.10;99.90;;;;;;4987474;28;20117;-34
2023/07/08 08:01:38;;;;;;;4.90;4.10;;;24.20;99.90;;;;;;5009160;28;20038;-36
2023/07/08 08:04:04;;;;;;;4.60;4.20;;;24.40;99.90;;;;;;5009342;28;20514;-36
2023/07/08 08:06:30;;;;;;;4.90;4.43;;;24.50;99.90;;;;;;5011645;28;20037;-39
2023/07/08 08:08:58;;;;;;;5.72;4.53;;;24.60;99.90;;;;;;4995625;28;20045;-37
2023/07/08 08:11:25;;;;;;;5.53;4.22;;;24.70;99.90;;;;;;5012762;28;20088;-36
2023/07/08 08:13:51;;;;;;;4.70;4.28;;;24.80;99.90;;;;;;4995564;28;20479;-37
2023/07/08 08:16:17;;;;;;;4.82;4.35;;;25.00;99.90;;;;;;5012581;28;20046;-40
2023/07/08 08:18:43;;;;;;;5.65;4.35;;;25.20;99.90;;;;;;5013448;28;20045;-37
2023/07/08 08:21:08;;;;;;;6.82;4.18;;;25.20;99.90;;;;;;5013168;28;20030;-37
2023/07/08 08:23:34;;;;;;;7.55;4.70;;;25.40;99.90;;;;;;5013027;28;20368;-33
2023/07/08 08:25:59;;;;;;;6.03;4.40;;;25.60;99.90;;;;;;4995021;28;20050;-36
2023/07/08 08:28:25;;;;;;;4.85;4.45;;;25.90;99.90;;;;;;5012348;28;20048;-40
2023/07/08 08:30:51;;;;;;;4.90;4.00;;;25.90;99.70;;;;;;4994978;28;20046;-37
2023/07/08 08:33:18;;;;;;;5.65;4.05;;;25.90;99.70;;;;;;5012601;28;20041;-37
2023/07/08 08:35:44;;;;;;;5.07;4.20;;;25.90;98.90;;;;;;5013366;28;20042;-37
2023/07/08 08:38:09;;;;;;;4.55;3.90;;;25.90;97.50;;;;;;5012500;28;20061;-38
2023/07/08 08:40:35;;;;;;;5.03;4.22;;;25.90;96.10;;;;;;4995038;28;20046;-37
2023/07/08 08:43:11;;;;;;;4.50;4.10;;;26.00;95.90;;;;;;5012294;28;20046;-37
2023/07/08 08:45:45;;;;;;;5.40;4.05;;;26.30;96.00;;;;;;5012648;28;20510;-39
2023/07/08 08:48:15;;;;;;;4.57;3.78;;;26.50;96.20;;;;;;4995084;28;20034;-34
2023/07/08 08:50:47;;;;;;;5.68;4.07;;;26.70;96.00;;;;;;5012521;28;20034;-41
2023/07/08 08:53:14;;;;;;;4.73;4.10;;;26.90;94.10;;;;;;5012433;28;20371;-33
2023/07/08 08:55:41;;;;;;;5.15;4.55;;;27.00;93.80;;;;;;5012059;28;20042;-40
2023/07/08 08:58:17;;;;;;;6.50;4.00;;;27.10;92.40;;;;;;5012708;28;20038;-37
2023/07/08 09:01:04;;;;;;;4.20;3.90;;;27.40;91.80;;;;;;5012050;28;20121;-34
2023/07/08 09:03:51;;;;;;;4.90;4.15;;;27.50;91.20;;;;;;5000542;28;20120;-38
2023/07/08 09:06:20;;;;;;;5.47;3.90;;;27.70;88.30;;;;;;5011794;28;20548;-37
2023/07/08 09:08:46;;;;;;;4.13;3.72;;;27.80;87.30;;;;;;5012007;28;20041;-38
2023/07/08 09:11:27;;;;;;;4.93;4.18;;;28.00;88.50;;;;;;5012087;28;20073;-36
2023/07/08 09:13:54;;;;;;;6.22;4.38;;;28.10;87.10;;;;;;5011936;28;20046;-37
2023/07/08 09:16:47;;;;;;;5.32;3.72;;;28.40;87.00;;;;;;5011879;28;20104;-33
2023/07/08 09:19:14;;;;;;;5.45;4.05;;;28.60;85.00;;;;;;5012256;28;20133;-40
2023/07/08 09:22:17;;;;;;;4.25;3.75;;;28.80;84.60;;;;;;5012686;28;20507;-35
2023/07/08 09:24:51;;;;;;;4.50;4.00;;;28.90;82.20;;;;;;5011974;28;20033;-38
2023/07/08 09:27:16;;;;;;;4.68;4.25;;;29.10;82.20;;;;;;5012358;28;20125;-39
2023/07/08 09:29:42;;;;;;;4.57;4.18;;;29.30;80.50;;;;;;4994013;28;20129;-37
2023/07/08 09:32:19;;;;;;;9.40;5.50;;;29.50;79.00;;;;;;5011859;28;20104;-36
2023/07/08 09:34:49;;;;;;;5.80;4.22;;;29.60;78.70;;;;;;5011459;28;20038;-37
2023/07/08 09:37:25;;;;;;;5.38;4.22;;;29.70;79.20;;;;;;5012231;28;20475;-39
2023/07/08 09:39:52;;;;;;;4.45;3.95;;;29.90;78.20;;;;;;5011739;28;20128;-38
2023/07/08 09:42:19;;;;;;;4.00;3.67;;;29.90;76.30;;;;;;5011850;28;20042;-40
2023/07/08 09:44:45;;;;;;;4.18;3.83;;;30.10;77.10;;;;;;5008083;28;20495;-42
2023/07/08 09:47:28;;;;;;;5.53;4.20;;;30.30;77.90;;;;;;4971912;28;20112;-37
2023/07/08 09:49:54;;;;;;;4.70;4.30;;;30.50;74.60;;;;;;5011707;28;20410;-38
2023/07/08 09:52:20;;;;;;;4.65;3.78;;;30.50;72.00;;;;;;5011116;28;20117;-38
2023/07/08 09:54:47;;;;;;;4.13;3.83;;;30.60;70.70;;;;;;5010927;28;20092;-38
2023/07/08 09:57:26;;;;;;;5.28;4.10;;;30.60;70.80;;;;;;5011078;28;20053;-37
2023/07/08 10:00:07;;;;;;;5.13;4.63;;;30.70;69.80;;;;;;5011131;28;20065;-42
2023/07/08 10:02:40;;;;;;;5.70;4.03;;;30.80;67.60;;;;;;5010264;28;20353;-40
2023/07/08 10:05:27;;;;;;;4.63;3.92;;;30.90;67.50;;;;;;5008869;28;20129;-38
2023/07/08 10:07:55;;;;;;;4.40;4.00;;;31.10;67.80;;;;;;5005726;28;20102;-40
2023/07/08 10:10:31;;;;;;;4.40;4.00;;;31.20;67.30;;;;;;5008044;28;20266;-43
2023/07/08 10:13:21;;;;;;;4.53;3.80;;;31.40;65.00;;;;;;5005309;28;20061;-42
2023/07/08 10:15:55;;;;;;;4.60;4.18;;;31.50;63.40;;;;;;4999527;28;20519;-42
2023/07/08 10:18:29;;;;;;;4.28;3.95;;;31.60;64.40;;;;;;5008891;28;20045;-43
2023/07/08 10:21:27;;;;;;;4.32;3.92;;;31.80;63.90;;;;;;5001619;28;20046;-42
2023/07/08 10:24:20;;;;;;;4.68;4.28;;;32.00;60.30;;;;;;4987651;28;20088;-41
2023/07/08 10:27:16;;;;;;;4.45;4.03;;;32.10;61.20;;;;;;4988549;28;20081;-44
2023/07/08 10:29:54;;;;;;;4.38;3.92;;;32.20;61.00;;;;;;5000614;28;20483;-46
2023/07/08 10:32:22;;;;;;;6.22;4.10;;;32.20;60.50;;;;;;4990225;28;20129;-48
2023/07/08 10:35:06;;;;;;;5.68;3.60;;;32.40;61.40;;;;;;5003313;28;20041;-47
2023/07/08 10:37:59;;;;;;;4.03;3.65;;;32.40;60.20;;;;;;5005488;28;20068;-43
2023/07/08 10:40:42;;;;;;;4.38;3.42;;;32.90;60.30;;;;;;4981778;28;20790;-43
2023/07/08 10:43:16;;;;;;;4.32;3.80;;;32.80;60.00;;;;;;4998979;28;20029;-43
2023/07/08 10:45:45;;;;;;;4.45;4.07;;;33.00;58.60;;;;;;5004002;28;20042;-42
2023/07/08 10:48:42;;;;;;;4.10;3.75;;;33.10;57.70;;;;;;5001199;28;20037;-43
2023/07/08 10:51:21;;;;;;;4.53;4.13;;;33.20;55.50;;;;;;4981301;28;20042;-42
2023/07/08 10:54:15;;;;;;;4.35;3.97;;;33.40;57.30;;;;;;5007540;28;20048;-42
2023/07/08 10:56:58;;;;;;;6.32;3.92;;;33.70;57.10;;;;;;5005530;28;20054;-42
2023/07/08 10:59:49;;;;;;;30.98;7.80;;;34.00;56.90;;;;;;5006666;28;20049;-42
2023/07/08 11:02:21;;;;;;;5.10;3.90;;;34.30;54.90;;;;;;5004565;28;20065;-43
2023/07/08 11:04:56;;;;;;;4.28;3.90;;;34.30;54.30;;;;;;5003136;28;20220;-43
2023/07/08 11:07:33;;;;;;;4.57;3.92;;;34.20;54.60;;;;;;5001853;28;20046;-43
2023/07/08 11:10:04;;;;;;;4.15;3.75;;;34.20;53.40;;;;;;5000744;28;20115;-41
2023/07/08 11:12:50;;;;;;;6.30;3.80;;;34.40;51.80;;;;;;5001469;28;20050;-41
2023/07/08 11:15:31;;;;;;;4.03;3.65;;;34.40;51.20;;;;;;5005363;28;20061;-43
2023/07/08 11:18:21;;;;;;;4.60;3.70;;;34.50;51.20;;;;;;4984866;28;20048;-42
2023/07/08 11:20:57;;;;;;;5.80;4.28;;;34.70;51.90;;;;;;4995220;28;20050;-42
2023/07/08 11:23:28;;;;;;;5.90;3.92;;;34.60;50.80;;;;;;5006795;28;20099;-42
2023/07/08 11:26:20;;;;;;;4.28;3.88;;;34.60;51.90;;;;;;5008815;28;20084;-42
2023/07/08 11:28:47;;;;;;;4.20;3.90;;;34.80;50.60;;;;;;4994047;28;20513;-42
2023/07/08 11:31:14;;;;;;;6.13;4.18;;;34.90;50.60;;;;;;5007924;28;20111;-42
2023/07/08 11:33:42;;;;;;;4.40;3.83;;;35.20;52.30;;;;;;4988462;28;20037;-43
2023/07/08 11:36:09;;;;;;;6.35;4.20;;;35.50;50.30;;;;;;5008760;28;20034;-42
2023/07/08 11:38:35;;;;;;;4.50;4.10;;;35.60;50.10;;;;;;4989364;28;20053;-42
2023/07/08 11:41:11;;;;;;;5.18;4.10;;;35.90;50.50;;;;;;4990051;28;20418;-42
2023/07/08 11:44:02;;;;;;;4.60;4.07;;;35.80;51.20;;;;;;5004112;28;20034;-42
2023/07/08 11:46:31;;;;;;;5.32;4.07;;;36.00;48.70;;;;;;4986946;28;20410;-43
2023/07/08 11:49:13;;;;;;;4.47;4.07;;;36.10;49.30;;;;;;4997930;28;20045;-43
2023/07/08 11:51:43;;;;;;;5.07;4.57;;;36.20;48.40;;;;;;4990870;28;20573;-43
2023/07/08 11:54:30;;;;;;;5.05;4.57;;;36.30;49.20;;;;;;5005984;28;20564;-42
2023/07/08 11:57:06;;;;;;;6.85;4.93;;;36.20;46.90;;;;;;5006159;28;20124;-42
2023/07/08 11:59:41;;;;;;;6.55;4.50;;;36.20;48.00;;;;;;4990645;28;20475;-41
2023/07/08 12:02:18;;;;;;;5.72;4.43;;;36.30;47.60;;;;;;5004628;28;20154;-43
2023/07/08 12:04:59;;;;;;;4.93;4.43;;;36.30;47.50;;;;;;4983626;28;20038;-43
2023/07/08 12:07:45;;;;;;;5.82;4.47;;;36.40;48.30;;;;;;5004912;28;20049;-43
2023/07/08 12:10:16;;;;;;;5.20;4.63;;;36.50;48.00;;;;;;5003009;28;20034;-42
2023/07/08 12:12:45;;;;;;;5.57;4.38;;;36.70;47.70;;;;;;5004002;28;20430;-41
2023/07/08 12:15:31;;;;;;;8.05;4.60;;;36.50;46.70;;;;;;5003354;28;20113;-42
2023/07/08 12:18:01;;;;;;;5.65;4.97;;;36.70;46.80;;;;;;4989471;28;20109;-43
2023/07/08 12:20:32;;;;;;;5.65;4.70;;;36.50;45.90;;;;;;5006791;28;20030;-43
2023/07/08 12:22:58;;;;;;;5.22;4.72;;;36.50;46.60;;;;;;5001517;28;20092;-43
2023/07/08 12:25:32;;;;;;;6.35;5.00;;;36.70;46.80;;;;;;5000940;28;20038;-43
2023/07/08 12:27:58;;;;;;;6.72;4.72;;;37.10;47.10;;;;;;4998981;28;20034;-42
2023/07/08 12:30:25;;;;;;;7.47;4.70;;;37.20;46.40;;;;;;4973419;28;20041;-42
2023/07/08 12:32:51;;;;;;;5.47;4.65;;;37.10;46.90;;;;;;4974707;28;20077;-41
2023/07/08 12:35:24;;;;;;;6.53;4.68;;;37.30;45.70;;;;;;5009369;28;20034;-40
2023/07/08 12:37:52;;;;;;;7.78;5.03;;;37.50;47.70;;;;;;4991958;28;20049;-40
2023/07/08 12:40:21;;;;;;;4.97;4.53;;;37.70;46.70;;;;;;5001078;28;20036;-44
2023/07/08 12:42:47;;;;;;;5.30;4.90;;;38.00;45.60;;;;;;4965693;28;20129;-39
2023/07/08 12:45:16;;;;;;;5.68;4.72;;;38.20;46.20;;;;;;5009032;28;20158;-38
2023/07/08 12:47:43;;;;;;;5.80;5.13;;;38.10;44.90;;;;;;4990463;28;20037;-42
2023/07/08 12:50:10;;;;;;;5.85;5.25;;;38.00;44.40;;;;;;4985965;28;20045;-42
2023/07/08 12:52:36;;;;;;;6.40;5.20;;;38.20;44.80;;;;;;4994149;28;20053;-41
2023/07/08 12:55:02;;;;;;;6.78;5.30;;;38.40;43.90;;;;;;4991820;28;20038;-41
2023/07/08 12:57:28;;;;;;;6.30;5.70;;;38.50;42.20;;;;;;5005882;28;20081;-41
2023/07/08 12:59:54;;;;;;;5.55;5.05;;;38.50;43.20;;;;;;5011851;28;20382;-38